sensor_id;sensor_type;location;lat;lon;timestamp;P1;durP1;ratioP1;P2;durP2;ratioP2
16099;SDS011;8154;50.830;12.082;2023-04-07T01:15:30;1.60;;;1.50;;
16099;SDS011;8154;50.830;12.082;2023-04-07T01:18:12;1.70;;;1.60;;
16099;SDS011;8154;50.830;12.082;2023-04-07T01:20:45;1.80;;;1.70;;
16099;SDS011;8154;50.830;12.082;2023-04-07T01:23:17;1.80;;;1.70;;
16099;SDS011;8154;50.830;12.082;2023-04-07T01:25:53;1.85;;;1.75;;
16099;SDS011;8154;50.830;12.082;2023-04-07T01:31:21;1.75;;;1.65;;
16099;SDS011;8154;50.830;12.082;2023-04-07T01:33:51;1.80;;;1.70;;
16099;SDS011;8154;50.830;12.082;2023-04-07T01:36:20;1.80;;;1.60;;
16099;SDS011;8154;50.830;12.082;2023-04-07T01:38:47;1.90;;;1.80;;
16099;SDS011;8154;50.830;12.082;2023-04-07T01:41:15;1.90;;;1.80;;
16099;SDS011;8154;50.830;12.082;2023-04-07T01:43:43;1.73;;;1.63;;
16099;SDS011;8154;50.830;12.082;2023-04-07T01:46:12;2.08;;;1.98;;
16099;SDS011;8154;50.830;12.082;2023-04-07T01:48:39;2.15;;;2.00;;
16099;SDS011;8154;50.830;12.082;2023-04-07T01:51:06;2.00;;;1.80;;
16099;SDS011;8154;50.830;12.082;2023-04-07T01:53:33;1.80;;;1.70;;
16099;SDS011;8154;50.830;12.082;2023-04-07T01:56:02;2.00;;;1.90;;
16099;SDS011;8154;50.830;12.082;2023-04-07T01:58:29;1.90;;;1.80;;
16099;SDS011;8154;50.830;12.082;2023-04-07T02:00:55;1.88;;;1.77;;
16099;SDS011;8154;50.830;12.082;2023-04-07T02:06:20;1.80;;;1.70;;
16099;SDS011;8154;50.830;12.082;2023-04-07T02:08:53;1.80;;;1.70;;
16099;SDS011;8154;50.830;12.082;2023-04-07T02:11:24;2.00;;;1.90;;
16099;SDS011;8154;50.830;12.082;2023-04-07T02:13:55;1.85;;;1.75;;
16099;SDS011;8154;50.830;12.082;2023-04-07T02:16:22;1.80;;;1.70;;
16099;SDS011;8154;50.830;12.082;2023-04-07T02:18:49;1.80;;;1.70;;
16099;SDS011;8154;50.830;12.082;2023-04-07T02:21:35;2.10;;;2.00;;
16099;SDS011;8154;50.830;12.082;2023-04-07T02:24:07;2.20;;;2.00;;
16099;SDS011;8154;50.830;12.082;2023-04-07T02:26:35;1.90;;;1.80;;
16099;SDS011;8154;50.830;12.082;2023-04-07T02:29:02;1.80;;;1.70;;
16099;SDS011;8154;50.830;12.082;2023-04-07T02:31:29;1.67;;;1.58;;
16099;SDS011;8154;50.830;12.082;2023-04-07T02:33:55;2.00;;;1.90;;
16099;SDS011;8154;50.830;12.082;2023-04-07T02:36:21;1.90;;;1.80;;
16099;SDS011;8154;50.830;12.082;2023-04-07T02:38:48;2.00;;;1.90;;
16099;SDS011;8154;50.830;12.082;2023-04-07T02:41:15;1.80;;;1.70;;
16099;SDS011;8154;50.830;12.082;2023-04-07T02:43:40;1.90;;;1.80;;
16099;SDS011;8154;50.830;12.082;2023-04-07T02:46:07;1.70;;;1.60;;
16099;SDS011;8154;50.830;12.082;2023-04-07T02:48:33;1.90;;;1.80;;
16099;SDS011;8154;50.830;12.082;2023-04-07T02:50:59;1.90;;;1.80;;
16099;SDS011;8154;50.830;12.082;2023-04-07T02:53:25;1.90;;;1.80;;
16099;SDS011;8154;50.830;12.082;2023-04-07T02:55:51;2.10;;;2.00;;
16099;SDS011;8154;50.830;12.082;2023-04-07T02:58:17;1.90;;;1.80;;
16099;SDS011;8154;50.830;12.082;2023-04-07T03:00:43;1.90;;;1.70;;
16099;SDS011;8154;50.830;12.082;2023-04-07T03:03:09;1.80;;;1.70;;
16099;SDS011;8154;50.830;12.082;2023-04-07T03:05:36;1.80;;;1.70;;
16099;SDS011;8154;50.830;12.082;2023-04-07T03:08:01;1.80;;;1.70;;
16099;SDS011;8154;50.830;12.082;2023-04-07T03:10:28;2.00;;;1.90;;
16099;SDS011;8154;50.830;12.082;2023-04-07T03:12:54;1.85;;;1.75;;
16099;SDS011;8154;50.830;12.082;2023-04-07T03:15:20;2.00;;;1.90;;
16099;SDS011;8154;50.830;12.082;2023-04-07T03:17:46;1.80;;;1.70;;
16099;SDS011;8154;50.830;12.082;2023-04-07T03:20:12;2.00;;;1.90;;
16099;SDS011;8154;50.830;12.082;2023-04-07T03:22:39;1.98;;;1.88;;
16099;SDS011;8154;50.830;12.082;2023-04-07T03:25:05;2.00;;;1.90;;
16099;SDS011;8154;50.830;12.082;2023-04-07T03:27:32;1.85;;;1.75;;
16099;SDS011;8154;50.830;12.082;2023-04-07T03:29:58;1.80;;;1.70;;
16099;SDS011;8154;50.830;12.082;2023-04-07T03:32:25;1.90;;;1.80;;
16099;SDS011;8154;50.830;12.082;2023-04-07T03:34:51;1.83;;;1.73;;
16099;SDS011;8154;50.830;12.082;2023-04-07T03:37:17;1.80;;;1.70;;
16099;SDS011;8154;50.830;12.082;2023-04-07T03:39:43;1.90;;;1.80;;
16099;SDS011;8154;50.830;12.082;2023-04-07T03:42:10;2.00;;;1.90;;
16099;SDS011;8154;50.830;12.082;2023-04-07T03:44:36;1.80;;;1.70;;
16099;SDS011;8154;50.830;12.082;2023-04-07T03:47:02;1.85;;;1.75;;
16099;SDS011;8154;50.830;12.082;2023-04-07T03:49:28;1.85;;;1.75;;
16099;SDS011;8154;50.830;12.082;2023-04-07T03:51:56;1.90;;;1.80;;
16099;SDS011;8154;50.830;12.082;2023-04-07T03:54:22;1.90;;;1.80;;
16099;SDS011;8154;50.830;12.082;2023-04-07T03:56:48;1.85;;;1.75;;
16099;SDS011;8154;50.830;12.082;2023-04-07T03:59:15;2.00;;;1.90;;
16099;SDS011;8154;50.830;12.082;2023-04-07T04:01:41;1.90;;;1.80;;
16099;SDS011;8154;50.830;12.082;2023-04-07T04:04:07;2.08;;;1.98;;
16099;SDS011;8154;50.830;12.082;2023-04-07T04:06:33;1.80;;;1.70;;
16099;SDS011;8154;50.830;12.082;2023-04-07T04:08:59;1.90;;;1.80;;
16099;SDS011;8154;50.830;12.082;2023-04-07T04:11:26;2.00;;;1.90;;
16099;SDS011;8154;50.830;12.082;2023-04-07T04:13:52;1.90;;;1.80;;
16099;SDS011;8154;50.830;12.082;2023-04-07T04:16:29;1.90;;;1.80;;
16099;SDS011;8154;50.830;12.082;2023-04-07T04:18:56;1.98;;;1.88;;
16099;SDS011;8154;50.830;12.082;2023-04-07T04:21:22;1.80;;;1.70;;
16099;SDS011;8154;50.830;12.082;2023-04-07T04:23:48;1.80;;;1.70;;
16099;SDS011;8154;50.830;12.082;2023-04-07T04:26:14;1.90;;;1.80;;
16099;SDS011;8154;50.830;12.082;2023-04-07T04:28:41;1.90;;;1.75;;
16099;SDS011;8154;50.830;12.082;2023-04-07T04:31:07;1.60;;;1.50;;
16099;SDS011;8154;50.830;12.082;2023-04-07T04:33:32;2.00;;;1.90;;
16099;SDS011;8154;50.830;12.082;2023-04-07T04:35:59;1.80;;;1.70;;
16099;SDS011;8154;50.830;12.082;2023-04-07T04:38:25;1.92;;;1.83;;
16099;SDS011;8154;50.830;12.082;2023-04-07T04:40:51;1.80;;;1.70;;
16099;SDS011;8154;50.830;12.082;2023-04-07T04:43:17;1.65;;;1.55;;
16099;SDS011;8154;50.830;12.082;2023-04-07T04:45:43;1.90;;;1.80;;
16099;SDS011;8154;50.830;12.082;2023-04-07T04:48:09;1.95;;;1.85;;
16099;SDS011;8154;50.830;12.082;2023-04-07T04:50:55;1.90;;;1.80;;
16099;SDS011;8154;50.830;12.082;2023-04-07T04:53:21;1.92;;;1.83;;
16099;SDS011;8154;50.830;12.082;2023-04-07T04:55:47;1.73;;;1.63;;
16099;SDS011;8154;50.830;12.082;2023-04-07T04:58:17;1.70;;;1.60;;
16099;SDS011;8154;50.830;12.082;2023-04-07T05:00:43;1.80;;;1.70;;
16099;SDS011;8154;50.830;12.082;2023-04-07T05:03:25;2.00;;;1.90;;
16099;SDS011;8154;50.830;12.082;2023-04-07T05:05:53;1.70;;;1.60;;
16099;SDS011;8154;50.830;12.082;2023-04-07T05:08:20;2.00;;;1.90;;
16099;SDS011;8154;50.830;12.082;2023-04-07T05:10:47;1.80;;;1.70;;
16099;SDS011;8154;50.830;12.082;2023-04-07T05:13:13;2.00;;;1.90;;
16099;SDS011;8154;50.830;12.082;2023-04-07T05:15:40;1.85;;;1.75;;
16099;SDS011;8154;50.830;12.082;2023-04-07T05:18:26;1.90;;;1.80;;
16099;SDS011;8154;50.830;12.082;2023-04-07T05:20:52;1.95;;;1.85;;
16099;SDS011;8154;50.830;12.082;2023-04-07T05:23:18;1.70;;;1.60;;
16099;SDS011;8154;50.830;12.082;2023-04-07T05:25:44;1.90;;;1.80;;
16099;SDS011;8154;50.830;12.082;2023-04-07T05:28:11;1.88;;;1.77;;
16099;SDS011;8154;50.830;12.082;2023-04-07T05:30:37;1.88;;;1.77;;
16099;SDS011;8154;50.830;12.082;2023-04-07T05:33:03;1.80;;;1.70;;
16099;SDS011;8154;50.830;12.082;2023-04-07T05:35:29;1.85;;;1.75;;
16099;SDS011;8154;50.830;12.082;2023-04-07T05:37:56;2.13;;;1.92;;
16099;SDS011;8154;50.830;12.082;2023-04-07T05:40:22;1.88;;;1.77;;
16099;SDS011;8154;50.830;12.082;2023-04-07T05:42:48;1.75;;;1.65;;
16099;SDS011;8154;50.830;12.082;2023-04-07T05:45:15;1.90;;;1.80;;
16099;SDS011;8154;50.830;12.082;2023-04-07T05:47:41;1.90;;;1.80;;
16099;SDS011;8154;50.830;12.082;2023-04-07T05:50:07;1.80;;;1.70;;
16099;SDS011;8154;50.830;12.082;2023-04-07T05:52:34;1.80;;;1.70;;
16099;SDS011;8154;50.830;12.082;2023-04-07T05:55:00;1.90;;;1.80;;
16099;SDS011;8154;50.830;12.082;2023-04-07T05:57:26;1.80;;;1.70;;
16099;SDS011;8154;50.830;12.082;2023-04-07T05:59:52;1.83;;;1.73;;
16099;SDS011;8154;50.830;12.082;2023-04-07T06:02:19;1.80;;;1.70;;
16099;SDS011;8154;50.830;12.082;2023-04-07T06:04:45;1.92;;;1.83;;
16099;SDS011;8154;50.830;12.082;2023-04-07T06:07:11;1.80;;;1.70;;
16099;SDS011;8154;50.830;12.082;2023-04-07T06:09:38;1.90;;;1.80;;
16099;SDS011;8154;50.830;12.082;2023-04-07T06:12:04;1.88;;;1.77;;
16099;SDS011;8154;50.830;12.082;2023-04-07T06:14:31;1.70;;;1.60;;
16099;SDS011;8154;50.830;12.082;2023-04-07T06:16:57;1.80;;;1.67;;
16099;SDS011;8154;50.830;12.082;2023-04-07T06:19:23;1.90;;;1.80;;
16099;SDS011;8154;50.830;12.082;2023-04-07T06:21:50;1.80;;;1.70;;
16099;SDS011;8154;50.830;12.082;2023-04-07T06:24:16;1.80;;;1.70;;
16099;SDS011;8154;50.830;12.082;2023-04-07T06:26:42;1.90;;;1.80;;
16099;SDS011;8154;50.830;12.082;2023-04-07T06:29:09;1.80;;;1.70;;
16099;SDS011;8154;50.830;12.082;2023-04-07T06:31:35;1.73;;;1.63;;
16099;SDS011;8154;50.830;12.082;2023-04-07T06:34:02;1.80;;;1.70;;
16099;SDS011;8154;50.830;12.082;2023-04-07T06:36:28;1.58;;;1.48;;
16099;SDS011;8154;50.830;12.082;2023-04-07T06:38:54;1.77;;;1.67;;
16099;SDS011;8154;50.830;12.082;2023-04-07T06:41:20;1.80;;;1.70;;
16099;SDS011;8154;50.830;12.082;2023-04-07T06:43:48;1.70;;;1.60;;
16099;SDS011;8154;50.830;12.082;2023-04-07T06:46:16;1.70;;;1.60;;
16099;SDS011;8154;50.830;12.082;2023-04-07T06:48:43;1.70;;;1.60;;
16099;SDS011;8154;50.830;12.082;2023-04-07T06:51:09;1.70;;;1.60;;
16099;SDS011;8154;50.830;12.082;2023-04-07T06:53:36;1.80;;;1.70;;
16099;SDS011;8154;50.830;12.082;2023-04-07T06:56:06;1.67;;;1.58;;
16099;SDS011;8154;50.830;12.082;2023-04-07T06:58:34;1.75;;;1.65;;
16099;SDS011;8154;50.830;12.082;2023-04-07T07:01:01;1.70;;;1.60;;
16099;SDS011;8154;50.830;12.082;2023-04-07T07:03:28;1.83;;;1.73;;
16099;SDS011;8154;50.830;12.082;2023-04-07T07:05:56;1.70;;;1.60;;
16099;SDS011;8154;50.830;12.082;2023-04-07T07:08:23;1.63;;;1.52;;
16099;SDS011;8154;50.830;12.082;2023-04-07T07:10:50;1.70;;;1.60;;
16099;SDS011;8154;50.830;12.082;2023-04-07T07:13:17;1.70;;;1.60;;
16099;SDS011;8154;50.830;12.082;2023-04-07T07:15:45;1.63;;;1.52;;
16099;SDS011;8154;50.830;12.082;2023-04-07T07:18:11;1.80;;;1.70;;
16099;SDS011;8154;50.830;12.082;2023-04-07T07:20:37;1.75;;;1.65;;
16099;SDS011;8154;50.830;12.082;2023-04-07T07:23:03;1.70;;;1.60;;
16099;SDS011;8154;50.830;12.082;2023-04-07T07:25:29;1.80;;;1.70;;
16099;SDS011;8154;50.830;12.082;2023-04-07T07:27:55;1.70;;;1.60;;
16099;SDS011;8154;50.830;12.082;2023-04-07T07:30:21;1.70;;;1.60;;
16099;SDS011;8154;50.830;12.082;2023-04-07T07:32:49;1.70;;;1.60;;
16099;SDS011;8154;50.830;12.082;2023-04-07T07:35:16;1.63;;;1.52;;
16099;SDS011;8154;50.830;12.082;2023-04-07T07:37:42;1.90;;;1.80;;
16099;SDS011;8154;50.830;12.082;2023-04-07T07:40:09;1.60;;;1.50;;
16099;SDS011;8154;50.830;12.082;2023-04-07T07:42:36;1.70;;;1.60;;
16099;SDS011;8154;50.830;12.082;2023-04-07T07:45:03;1.60;;;1.50;;
16099;SDS011;8154;50.830;12.082;2023-04-07T07:47:30;1.70;;;1.60;;
16099;SDS011;8154;50.830;12.082;2023-04-07T07:49:56;1.60;;;1.50;;
16099;SDS011;8154;50.830;12.082;2023-04-07T07:52:22;1.67;;;1.58;;
16099;SDS011;8154;50.830;12.082;2023-04-07T07:54:49;1.70;;;1.60;;
16099;SDS011;8154;50.830;12.082;2023-04-07T07:57:16;1.70;;;1.60;;
16099;SDS011;8154;50.830;12.082;2023-04-07T07:59:42;1.77;;;1.67;;
16099;SDS011;8154;50.830;12.082;2023-04-07T08:02:08;1.55;;;1.45;;
16099;SDS011;8154;50.830;12.082;2023-04-07T08:04:35;1.60;;;1.50;;
16099;SDS011;8154;50.830;12.082;2023-04-07T08:07:02;1.60;;;1.50;;
16099;SDS011;8154;50.830;12.082;2023-04-07T08:09:31;1.80;;;1.70;;
16099;SDS011;8154;50.830;12.082;2023-04-07T08:11:57;1.77;;;1.67;;
16099;SDS011;8154;50.830;12.082;2023-04-07T08:14:23;1.70;;;1.60;;
16099;SDS011;8154;50.830;12.082;2023-04-07T08:16:49;1.60;;;1.50;;
16099;SDS011;8154;50.830;12.082;2023-04-07T08:19:16;1.70;;;1.60;;
16099;SDS011;8154;50.830;12.082;2023-04-07T08:21:41;1.70;;;1.60;;
16099;SDS011;8154;50.830;12.082;2023-04-07T08:24:08;1.80;;;1.70;;
16099;SDS011;8154;50.830;12.082;2023-04-07T08:26:35;1.75;;;1.65;;
16099;SDS011;8154;50.830;12.082;2023-04-07T08:29:01;1.70;;;1.60;;
16099;SDS011;8154;50.830;12.082;2023-04-07T08:31:27;1.58;;;1.48;;
16099;SDS011;8154;50.830;12.082;2023-04-07T08:33:53;1.67;;;1.58;;
16099;SDS011;8154;50.830;12.082;2023-04-07T08:36:23;1.52;;;1.42;;
16099;SDS011;8154;50.830;12.082;2023-04-07T08:38:51;1.70;;;1.60;;
16099;SDS011;8154;50.830;12.082;2023-04-07T08:41:18;1.60;;;1.50;;
16099;SDS011;8154;50.830;12.082;2023-04-07T08:43:48;1.80;;;1.70;;
16099;SDS011;8154;50.830;12.082;2023-04-07T08:46:16;1.70;;;1.60;;
16099;SDS011;8154;50.830;12.082;2023-04-07T08:48:49;1.75;;;1.65;;
16099;SDS011;8154;50.830;12.082;2023-04-07T08:51:27;1.60;;;1.50;;
16099;SDS011;8154;50.830;12.082;2023-04-07T08:54:00;1.60;;;1.50;;
16099;SDS011;8154;50.830;12.082;2023-04-07T08:56:32;1.60;;;1.50;;
16099;SDS011;8154;50.830;12.082;2023-04-07T08:59:00;1.60;;;1.50;;
16099;SDS011;8154;50.830;12.082;2023-04-07T09:01:27;1.50;;;1.40;;
16099;SDS011;8154;50.830;12.082;2023-04-07T09:03:54;1.70;;;1.60;;
16099;SDS011;8154;50.830;12.082;2023-04-07T09:06:22;1.70;;;1.60;;
16099;SDS011;8154;50.830;12.082;2023-04-07T09:08:48;1.60;;;1.50;;
16099;SDS011;8154;50.830;12.082;2023-04-07T09:11:15;1.50;;;1.40;;
16099;SDS011;8154;50.830;12.082;2023-04-07T09:13:41;1.50;;;1.40;;
16099;SDS011;8154;50.830;12.082;2023-04-07T09:16:07;1.60;;;1.50;;
16099;SDS011;8154;50.830;12.082;2023-04-07T09:18:33;1.50;;;1.40;;
16099;SDS011;8154;50.830;12.082;2023-04-07T10:21:58;1.67;;;1.58;;
16099;SDS011;8154;50.830;12.082;2023-04-07T10:26:56;1.48;;;1.38;;
16099;SDS011;8154;50.830;12.082;2023-04-07T10:29:33;1.48;;;1.38;;
16099;SDS011;8154;50.830;12.082;2023-04-07T10:32:02;1.50;;;1.40;;
16099;SDS011;8154;50.830;12.082;2023-04-07T10:37:31;1.50;;;1.40;;
16099;SDS011;8154;50.830;12.082;2023-04-07T10:42:44;1.60;;;1.50;;
16099;SDS011;8154;50.830;12.082;2023-04-07T10:45:13;1.50;;;1.40;;
16099;SDS011;8154;50.830;12.082;2023-04-07T10:50:27;1.50;;;1.40;;
16099;SDS011;8154;50.830;12.082;2023-04-07T10:55:37;1.50;;;1.40;;
16099;SDS011;8154;50.830;12.082;2023-04-07T10:58:24;1.50;;;1.40;;
16099;SDS011;8154;50.830;12.082;2023-04-07T11:03:33;1.50;;;1.40;;
16099;SDS011;8154;50.830;12.082;2023-04-07T11:06:09;1.30;;;1.30;;
16099;SDS011;8154;50.830;12.082;2023-04-07T11:08:45;1.42;;;1.33;;
16099;SDS011;8154;50.830;12.082;2023-04-07T11:11:13;1.40;;;1.30;;
16099;SDS011;8154;50.830;12.082;2023-04-07T11:13:44;1.60;;;1.50;;
16099;SDS011;8154;50.830;12.082;2023-04-07T11:16:15;1.40;;;1.30;;
16099;SDS011;8154;50.830;12.082;2023-04-07T11:18:44;1.40;;;1.30;;
16099;SDS011;8154;50.830;12.082;2023-04-07T11:21:16;1.50;;;1.40;;
16099;SDS011;8154;50.830;12.082;2023-04-07T11:23:43;1.20;;;1.20;;
16099;SDS011;8154;50.830;12.082;2023-04-07T11:26:11;1.40;;;1.30;;
16099;SDS011;8154;50.830;12.082;2023-04-07T11:28:44;1.50;;;1.40;;
16099;SDS011;8154;50.830;12.082;2023-04-07T11:31:11;1.50;;;1.40;;
16099;SDS011;8154;50.830;12.082;2023-04-07T11:33:50;1.40;;;1.30;;
16099;SDS011;8154;50.830;12.082;2023-04-07T11:36:24;1.58;;;1.48;;
16099;SDS011;8154;50.830;12.082;2023-04-07T11:38:53;1.60;;;1.50;;
16099;SDS011;8154;50.830;12.082;2023-04-07T11:41:20;1.50;;;1.40;;
16099;SDS011;8154;50.830;12.082;2023-04-07T11:43:47;1.30;;;1.30;;
16099;SDS011;8154;50.830;12.082;2023-04-07T11:46:27;1.50;;;1.40;;
16099;SDS011;8154;50.830;12.082;2023-04-07T11:48:54;1.50;;;1.40;;
16099;SDS011;8154;50.830;12.082;2023-04-07T11:51:37;1.33;;;1.30;;
16099;SDS011;8154;50.830;12.082;2023-04-07T11:54:04;1.48;;;1.38;;
16099;SDS011;8154;50.830;12.082;2023-04-07T11:56:40;1.30;;;1.20;;
16099;SDS011;8154;50.830;12.082;2023-04-07T11:59:20;1.45;;;1.35;;
16099;SDS011;8154;50.830;12.082;2023-04-07T12:01:51;1.42;;;1.33;;
16099;SDS011;8154;50.830;12.082;2023-04-07T12:04:18;1.40;;;1.30;;
16099;SDS011;8154;50.830;12.082;2023-04-07T12:06:45;1.40;;;1.30;;
16099;SDS011;8154;50.830;12.082;2023-04-07T12:09:31;1.38;;;1.27;;
16099;SDS011;8154;50.830;12.082;2023-04-07T12:12:05;1.10;;;1.10;;
16099;SDS011;8154;50.830;12.082;2023-04-07T12:14:32;1.40;;;1.30;;
16099;SDS011;8154;50.830;12.082;2023-04-07T12:16:59;1.40;;;1.30;;
16099;SDS011;8154;50.830;12.082;2023-04-07T12:19:29;1.40;;;1.30;;
16099;SDS011;8154;50.830;12.082;2023-04-07T13:08:00;1.40;;;1.30;;
16099;SDS011;8154;50.830;12.082;2023-04-07T14:20:54;1.30;;;1.20;;
16099;SDS011;8154;50.830;12.082;2023-04-07T14:23:22;1.30;;;1.20;;
16099;SDS011;8154;50.830;12.082;2023-04-07T14:25:50;1.20;;;1.20;;
16099;SDS011;8154;50.830;12.082;2023-04-07T14:28:18;1.23;;;1.17;;
16099;SDS011;8154;50.830;12.082;2023-04-07T14:30:44;1.25;;;1.23;;
16099;SDS011;8154;50.830;12.082;2023-04-07T14:33:10;1.25;;;1.25;;
16099;SDS011;8154;50.830;12.082;2023-04-07T14:35:37;1.10;;;1.10;;
16099;SDS011;8154;50.830;12.082;2023-04-07T14:38:05;1.20;;;1.20;;
16099;SDS011;8154;50.830;12.082;2023-04-07T14:40:31;1.10;;;1.10;;
16099;SDS011;8154;50.830;12.082;2023-04-07T14:42:57;1.25;;;1.15;;
16099;SDS011;8154;50.830;12.082;2023-04-07T14:45:24;1.13;;;1.05;;
16099;SDS011;8154;50.830;12.082;2023-04-07T14:47:50;1.30;;;1.20;;
16099;SDS011;8154;50.830;12.082;2023-04-07T14:50:16;1.30;;;1.20;;
16099;SDS011;8154;50.830;12.082;2023-04-07T14:52:45;1.13;;;1.13;;
16099;SDS011;8154;50.830;12.082;2023-04-07T14:55:11;1.20;;;1.20;;
16099;SDS011;8154;50.830;12.082;2023-04-07T14:57:37;1.00;;;1.00;;
16099;SDS011;8154;50.830;12.082;2023-04-07T15:00:04;1.20;;;1.20;;
16099;SDS011;8154;50.830;12.082;2023-04-07T15:02:34;1.02;;;1.02;;
16099;SDS011;8154;50.830;12.082;2023-04-07T15:05:01;1.20;;;1.20;;
16099;SDS011;8154;50.830;12.082;2023-04-07T15:07:27;1.10;;;1.10;;
16099;SDS011;8154;50.830;12.082;2023-04-07T15:09:53;1.38;;;1.27;;
16099;SDS011;8154;50.830;12.082;2023-04-07T15:12:19;1.10;;;1.10;;
16099;SDS011;8154;50.830;12.082;2023-04-07T15:14:45;1.17;;;1.15;;
16099;SDS011;8154;50.830;12.082;2023-04-07T15:17:15;1.40;;;1.30;;
16099;SDS011;8154;50.830;12.082;2023-04-07T15:19:41;1.10;;;1.10;;
16099;SDS011;8154;50.830;12.082;2023-04-07T16:23:30;1.10;;;1.10;;
16099;SDS011;8154;50.830;12.082;2023-04-07T16:25:57;1.10;;;1.10;;
16099;SDS011;8154;50.830;12.082;2023-04-07T16:28:23;1.08;;;1.08;;
16099;SDS011;8154;50.830;12.082;2023-04-07T16:30:49;1.20;;;1.13;;
16099;SDS011;8154;50.830;12.082;2023-04-07T16:33:16;1.10;;;1.10;;
16099;SDS011;8154;50.830;12.082;2023-04-07T16:35:41;1.10;;;1.10;;
16099;SDS011;8154;50.830;12.082;2023-04-07T16:38:07;1.00;;;1.00;;
16099;SDS011;8154;50.830;12.082;2023-04-07T16:40:34;1.10;;;1.10;;
16099;SDS011;8154;50.830;12.082;2023-04-07T16:43:00;1.00;;;1.00;;
16099;SDS011;8154;50.830;12.082;2023-04-07T16:45:26;1.10;;;1.10;;
16099;SDS011;8154;50.830;12.082;2023-04-07T16:47:52;1.35;;;1.25;;
16099;SDS011;8154;50.830;12.082;2023-04-07T16:50:18;0.98;;;0.98;;
16099;SDS011;8154;50.830;12.082;2023-04-07T16:52:45;1.00;;;1.00;;
16099;SDS011;8154;50.830;12.082;2023-04-07T16:55:12;1.10;;;1.10;;
16099;SDS011;8154;50.830;12.082;2023-04-07T16:57:38;1.10;;;1.10;;
16099;SDS011;8154;50.830;12.082;2023-04-07T17:00:04;1.30;;;1.20;;
16099;SDS011;8154;50.830;12.082;2023-04-07T17:02:31;1.10;;;1.10;;
16099;SDS011;8154;50.830;12.082;2023-04-07T17:04:57;1.10;;;1.10;;
16099;SDS011;8154;50.830;12.082;2023-04-07T17:07:24;1.10;;;1.10;;
16099;SDS011;8154;50.830;12.082;2023-04-07T17:09:54;1.30;;;1.20;;
16099;SDS011;8154;50.830;12.082;2023-04-07T17:12:20;1.00;;;1.00;;
16099;SDS011;8154;50.830;12.082;2023-04-07T17:14:47;1.10;;;1.10;;
16099;SDS011;8154;50.830;12.082;2023-04-07T17:17:13;1.08;;;1.08;;
16099;SDS011;8154;50.830;12.082;2023-04-07T17:19:39;1.00;;;1.00;;
16099;SDS011;8154;50.830;12.082;2023-04-07T18:23:21;1.17;;;1.17;;
16099;SDS011;8154;50.830;12.082;2023-04-07T18:25:46;1.10;;;1.10;;
16099;SDS011;8154;50.830;12.082;2023-04-07T18:28:13;1.10;;;1.10;;
16099;SDS011;8154;50.830;12.082;2023-04-07T18:30:41;1.27;;;1.17;;
16099;SDS011;8154;50.830;12.082;2023-04-07T18:33:07;1.10;;;1.10;;
16099;SDS011;8154;50.830;12.082;2023-04-07T18:35:33;1.00;;;1.00;;
16099;SDS011;8154;50.830;12.082;2023-04-07T18:37:59;1.00;;;1.00;;
16099;SDS011;8154;50.830;12.082;2023-04-07T18:40:25;1.10;;;1.10;;
16099;SDS011;8154;50.830;12.082;2023-04-07T18:42:54;1.10;;;1.10;;
16099;SDS011;8154;50.830;12.082;2023-04-07T18:45:20;1.00;;;1.00;;
16099;SDS011;8154;50.830;12.082;2023-04-07T18:47:47;1.00;;;1.00;;
16099;SDS011;8154;50.830;12.082;2023-04-07T18:50:13;1.10;;;1.10;;
16099;SDS011;8154;50.830;12.082;2023-04-07T18:52:39;1.30;;;1.20;;
16099;SDS011;8154;50.830;12.082;2023-04-07T18:55:05;1.10;;;1.10;;
16099;SDS011;8154;50.830;12.082;2023-04-07T18:57:32;1.10;;;1.10;;
16099;SDS011;8154;50.830;12.082;2023-04-07T18:59:59;1.00;;;1.00;;
16099;SDS011;8154;50.830;12.082;2023-04-07T19:02:25;1.10;;;1.10;;
16099;SDS011;8154;50.830;12.082;2023-04-07T19:04:51;1.20;;;1.10;;
16099;SDS011;8154;50.830;12.082;2023-04-07T19:07:18;1.10;;;1.10;;
16099;SDS011;8154;50.830;12.082;2023-04-07T19:09:45;1.00;;;1.00;;
16099;SDS011;8154;50.830;12.082;2023-04-07T19:12:15;1.10;;;1.10;;
16099;SDS011;8154;50.830;12.082;2023-04-07T19:14:41;1.10;;;1.10;;
16099;SDS011;8154;50.830;12.082;2023-04-07T19:17:07;1.00;;;1.00;;
16099;SDS011;8154;50.830;12.082;2023-04-07T19:19:33;1.13;;;1.13;;
16099;SDS011;8154;50.830;12.082;2023-04-07T19:21:59;1.08;;;1.08;;
16099;SDS011;8154;50.830;12.082;2023-04-07T19:24:25;1.15;;;1.15;;
16099;SDS011;8154;50.830;12.082;2023-04-07T19:26:52;1.17;;;1.10;;
16099;SDS011;8154;50.830;12.082;2023-04-07T19:29:18;1.00;;;1.00;;
16099;SDS011;8154;50.830;12.082;2023-04-07T19:31:44;1.10;;;1.10;;
16099;SDS011;8154;50.830;12.082;2023-04-07T19:34:12;1.00;;;1.00;;
16099;SDS011;8154;50.830;12.082;2023-04-07T19:36:38;1.10;;;1.10;;
16099;SDS011;8154;50.830;12.082;2023-04-07T19:39:06;1.30;;;1.20;;
16099;SDS011;8154;50.830;12.082;2023-04-07T19:41:32;1.00;;;1.00;;
16099;SDS011;8154;50.830;12.082;2023-04-07T19:43:59;1.08;;;1.08;;
16099;SDS011;8154;50.830;12.082;2023-04-07T19:46:25;1.10;;;1.10;;
16099;SDS011;8154;50.830;12.082;2023-04-07T19:48:52;1.00;;;1.00;;
16099;SDS011;8154;50.830;12.082;2023-04-07T19:51:18;1.00;;;1.00;;
16099;SDS011;8154;50.830;12.082;2023-04-07T19:53:45;1.08;;;1.08;;
16099;SDS011;8154;50.830;12.082;2023-04-07T19:56:11;1.13;;;1.13;;
16099;SDS011;8154;50.830;12.082;2023-04-07T19:58:39;1.00;;;1.00;;
16099;SDS011;8154;50.830;12.082;2023-04-07T20:01:12;1.30;;;1.20;;
16099;SDS011;8154;50.830;12.082;2023-04-07T20:03:41;1.10;;;1.10;;
16099;SDS011;8154;50.830;12.082;2023-04-07T20:06:07;1.25;;;1.20;;
16099;SDS011;8154;50.830;12.082;2023-04-07T20:08:35;1.23;;;1.15;;
16099;SDS011;8154;50.830;12.082;2023-04-07T20:11:02;1.00;;;1.00;;
16099;SDS011;8154;50.830;12.082;2023-04-07T20:13:29;1.08;;;1.00;;
16099;SDS011;8154;50.830;12.082;2023-04-07T20:15:56;1.00;;;1.00;;
16099;SDS011;8154;50.830;12.082;2023-04-07T20:18:23;1.10;;;1.10;;
16099;SDS011;8154;50.830;12.082;2023-04-07T20:20:56;1.17;;;1.10;;
16099;SDS011;8154;50.830;12.082;2023-04-07T20:23:26;1.25;;;1.15;;
16099;SDS011;8154;50.830;12.082;2023-04-07T21:24:28;1.10;;;1.10;;
16099;SDS011;8154;50.830;12.082;2023-04-07T21:26:54;1.10;;;1.10;;
16099;SDS011;8154;50.830;12.082;2023-04-07T21:29:22;1.05;;;1.05;;
16099;SDS011;8154;50.830;12.082;2023-04-07T21:31:48;1.00;;;1.00;;
16099;SDS011;8154;50.830;12.082;2023-04-07T21:34:15;1.05;;;1.05;;
16099;SDS011;8154;50.830;12.082;2023-04-07T21:36:41;0.95;;;0.95;;
16099;SDS011;8154;50.830;12.082;2023-04-07T21:39:08;0.98;;;0.98;;
16099;SDS011;8154;50.830;12.082;2023-04-07T21:41:34;1.38;;;1.27;;
16099;SDS011;8154;50.830;12.082;2023-04-07T21:44:02;1.10;;;1.10;;
16099;SDS011;8154;50.830;12.082;2023-04-07T21:46:30;1.00;;;1.00;;
16099;SDS011;8154;50.830;12.082;2023-04-07T21:48:58;1.10;;;1.10;;
16099;SDS011;8154;50.830;12.082;2023-04-07T21:51:24;1.10;;;1.10;;
16099;SDS011;8154;50.830;12.082;2023-04-07T21:53:52;1.10;;;1.10;;
16099;SDS011;8154;50.830;12.082;2023-04-07T21:56:18;1.00;;;1.00;;
16099;SDS011;8154;50.830;12.082;2023-04-07T21:58:44;1.30;;;1.20;;
16099;SDS011;8154;50.830;12.082;2023-04-07T22:01:11;1.20;;;1.10;;
16099;SDS011;8154;50.830;12.082;2023-04-07T22:03:38;1.10;;;1.10;;
16099;SDS011;8154;50.830;12.082;2023-04-07T22:06:04;1.10;;;1.10;;
16099;SDS011;8154;50.830;12.082;2023-04-07T22:08:32;1.00;;;1.00;;
16099;SDS011;8154;50.830;12.082;2023-04-07T22:11:00;1.00;;;1.00;;
16099;SDS011;8154;50.830;12.082;2023-04-07T22:13:26;1.17;;;1.17;;
16099;SDS011;8154;50.830;12.082;2023-04-07T22:15:52;1.00;;;1.00;;
16099;SDS011;8154;50.830;12.082;2023-04-07T22:18:18;1.10;;;1.10;;
16099;SDS011;8154;50.830;12.082;2023-04-07T22:20:45;1.08;;;1.08;;
16099;SDS011;8154;50.830;12.082;2023-04-07T22:23:11;1.10;;;1.10;;
16099;SDS011;8154;50.830;12.082;2023-04-07T22:25:40;1.10;;;1.10;;